Accueil
METAR-TAF:

METAR-TAF

Aéroports :

Aéroport de Bordj Mokhtar

Bordj Badji Mokhtar, Algérie

latitude: 21-22-30N, longitude: 000-55-26E, altitude: 396 m

Observation

Le bulletin a été fait il y a 6 heures et 58 minutes, à 18:00 UTC
Vent calme
Température 30°C
Pression 1017 hPa
Visibilité 10 km ou plus
pas de nuages en-dessous de 1500 mètres et pas de cumulonimbus.

METAR: DATM 261800Z 00000KT CAVOK 30/// Q1017

Heure: 01:58 (00:58 UTC)

Prévision

Le bulletin a été fait il y a 7 heures et 58 minutes, à 17:00 UTC
Prévision valable du 26 à 18 UTC au 27 à 03 UTC
Vent 6 kt de sud/sud-est
Visibilité 10 km ou plus
pas de nuages en-dessous de 1500 mètres et pas de cumulonimbus.

TAF: DATM 261700Z 2618/2703 16006KT CAVOK

Observations et prévisions météorologiques de plus de 4000 aéroports (messages METAR et TAF).

Les stations disponibles sont représentées par des disques jaunes et rouges sur la carte.

Passer la souris dessus pour voir le nom de la station.

Cliquer dessus pour voir les observations et prévisions météorologiques.

Pour changer de carte: cliquez sur les boutons verts avec une croix noire pour zoomer, sur le bouton vert avec un tiret pour effectuer un zoom arrière, ou sur les flèches vertes pour les cartes adjacentes.


METAR-TAF: